Portada
METAR-TAF:

METAR-TAF

Aeropuertos :

Nimes, Francia

latitud: 43-45N, longitud: 004-25E, altitud: 94 m

Observación

El informe se hizo hace 31 minutos, a las 23:00 UTC
Viento 3 kt del norte-noroeste
Temperatura 23°C
Humedad 69%
Presión 1016 hPa
Visibilidad 10 km o más
sin nubes por debajo de 1500 m y sin presencia de cumulonimbus.

METAR: LFTW 212300Z AUTO 34003KT CAVOK 23/17 Q1016

Hora: 01:31 (23:31 UTC)

Pronóstico

El informe se hizo hace 9 horas y 31 minutos, a las 14:00 UTC
Pronóstico válido del 21 a las 15 UTC al 22 a las 15 UTC
Viento 10 kt del sur
Visibilidad 10 km o más
sin nubes por debajo de 1500 m y sin presencia de cumulonimbus.
Evolucionando progresivamente
del 21 a las 19 UTC al 21 a las 21 UTC
Viento 3 kt con dirección variable
Evolucionando progresivamente
del 22 a las 12 UTC al 22 a las 14 UTC
Viento 12 kt del sur-suroeste

TAF: LFTW 211400Z 2115/2215 18010KT CAVOK BECMG 2119/2121 VRB03KT BECMG 2212/2214 20012KT

Observaciones y pronósticos meteorológicos de más de 4000 aeropuertos (mensajes METAR y TAF).

Los puntos amarillos y rojos representan las estaciones disponibles.

Ponga el ratón en el punto deseado para ver el nombre de la estación.

Haga clic para ver las observaciones y los pronósticos meteorológicos.

Para cambiar el mapa : haga clic en los botones verdes con una cruz de color negro para hacer un zoom, en el botón verde con un guión para alejar o en las flechas verdes para mapas adyacentes.


METAR-TAF: